Skandia, Michigan
Current Conditions -  °F | °C
As of 3:57 AM on Sunday 26 Oct 2014 (Local Time) from KSAW Reporting Station
Clear Clear  
Wind Chill:   Ceiling: Unl
Heat Index:   Visibility: 10mi
Dew Point: -1°   Wind: 10mph
Humidity: 62%   Direction: 320°NW
Pressure: 29.87"   Gusts: NA
Location:  46.38°N, 87.24°W
Report Text: KSAW 260757Z AUTO 32009KT 10SM CLR 06/M01 A2987 RMK AO2 T00611008
Loading
Personal Weather Stations






























Interactive Weather Map
Tropical Storm Tracking
New forecast layout! Learn more

10-Day Weather Forecast

Advertisements
Track Severe Weather on mobile